sensor_id;sensor_type;location;lat;lon;timestamp;P1;durP1;ratioP1;P2;durP2;ratioP2
11761;SDS011;5938;47.098;15.474;2024-02-28T00:00:50;45.30;;;17.20;;
11761;SDS011;5938;47.098;15.474;2024-02-28T00:04:54;49.37;;;17.70;;
11761;SDS011;5938;47.098;15.474;2024-02-28T00:08:59;45.60;;;18.40;;
11761;SDS011;5938;47.098;15.474;2024-02-28T00:13:03;43.90;;;15.63;;
11761;SDS011;5938;47.098;15.474;2024-02-28T00:17:08;44.77;;;16.70;;
11761;SDS011;5938;47.098;15.474;2024-02-28T00:21:12;42.37;;;16.20;;
11761;SDS011;5938;47.098;15.474;2024-02-28T00:25:16;63.10;;;17.60;;
11761;SDS011;5938;47.098;15.474;2024-02-28T00:29:19;48.20;;;15.70;;
11761;SDS011;5938;47.098;15.474;2024-02-28T00:33:24;49.90;;;16.37;;
11761;SDS011;5938;47.098;15.474;2024-02-28T00:37:28;44.73;;;13.50;;
11761;SDS011;5938;47.098;15.474;2024-02-28T00:41:31;46.77;;;16.00;;
11761;SDS011;5938;47.098;15.474;2024-02-28T00:45:35;41.27;;;14.40;;
11761;SDS011;5938;47.098;15.474;2024-02-28T00:49:40;43.33;;;14.20;;
11761;SDS011;5938;47.098;15.474;2024-02-28T00:53:44;43.57;;;12.83;;
11761;SDS011;5938;47.098;15.474;2024-02-28T00:57:48;45.27;;;15.50;;
11761;SDS011;5938;47.098;15.474;2024-02-28T01:01:51;44.47;;;13.53;;
11761;SDS011;5938;47.098;15.474;2024-02-28T01:05:56;42.03;;;14.30;;
11761;SDS011;5938;47.098;15.474;2024-02-28T01:10:02;42.57;;;12.27;;
11761;SDS011;5938;47.098;15.474;2024-02-28T01:14:06;44.63;;;14.63;;
11761;SDS011;5938;47.098;15.474;2024-02-28T01:18:10;43.80;;;14.67;;
11761;SDS011;5938;47.098;15.474;2024-02-28T01:22:15;40.33;;;12.53;;
11761;SDS011;5938;47.098;15.474;2024-02-28T01:26:18;42.17;;;13.83;;
11761;SDS011;5938;47.098;15.474;2024-02-28T01:30:23;51.00;;;15.60;;
11761;SDS011;5938;47.098;15.474;2024-02-28T01:34:27;41.87;;;12.60;;
11761;SDS011;5938;47.098;15.474;2024-02-28T01:38:35;41.53;;;13.83;;
11761;SDS011;5938;47.098;15.474;2024-02-28T01:43:06;42.20;;;13.37;;
11761;SDS011;5938;47.098;15.474;2024-02-28T01:47:11;41.57;;;13.10;;
11761;SDS011;5938;47.098;15.474;2024-02-28T01:51:15;43.97;;;13.23;;
11761;SDS011;5938;47.098;15.474;2024-02-28T01:55:20;42.73;;;12.40;;
11761;SDS011;5938;47.098;15.474;2024-02-28T01:59:24;43.80;;;13.20;;
11761;SDS011;5938;47.098;15.474;2024-02-28T02:03:30;70.17;;;21.37;;
11761;SDS011;5938;47.098;15.474;2024-02-28T02:07:35;43.70;;;13.40;;
11761;SDS011;5938;47.098;15.474;2024-02-28T02:11:40;44.80;;;13.37;;
11761;SDS011;5938;47.098;15.474;2024-02-28T02:15:43;57.97;;;15.77;;
11761;SDS011;5938;47.098;15.474;2024-02-28T02:19:47;52.40;;;15.77;;
11761;SDS011;5938;47.098;15.474;2024-02-28T02:23:51;46.60;;;14.10;;
11761;SDS011;5938;47.098;15.474;2024-02-28T02:27:55;49.67;;;16.00;;
11761;SDS011;5938;47.098;15.474;2024-02-28T02:31:59;53.70;;;15.67;;
11761;SDS011;5938;47.098;15.474;2024-02-28T02:36:08;52.97;;;15.20;;
11761;SDS011;5938;47.098;15.474;2024-02-28T02:40:13;43.70;;;13.17;;
11761;SDS011;5938;47.098;15.474;2024-02-28T02:44:17;45.80;;;14.53;;
11761;SDS011;5938;47.098;15.474;2024-02-28T02:48:20;44.87;;;14.70;;
11761;SDS011;5938;47.098;15.474;2024-02-28T02:52:24;44.47;;;13.03;;
11761;SDS011;5938;47.098;15.474;2024-02-28T02:56:30;46.27;;;13.87;;
11761;SDS011;5938;47.098;15.474;2024-02-28T03:00:33;43.40;;;12.57;;
11761;SDS011;5938;47.098;15.474;2024-02-28T03:04:37;41.47;;;12.17;;
11761;SDS011;5938;47.098;15.474;2024-02-28T03:08:40;46.03;;;13.90;;
11761;SDS011;5938;47.098;15.474;2024-02-28T03:12:45;43.20;;;13.50;;
11761;SDS011;5938;47.098;15.474;2024-02-28T03:16:49;42.37;;;11.77;;
11761;SDS011;5938;47.098;15.474;2024-02-28T03:20:52;40.67;;;11.10;;
11761;SDS011;5938;47.098;15.474;2024-02-28T03:24:55;47.07;;;12.63;;
11761;SDS011;5938;47.098;15.474;2024-02-28T03:29:01;44.27;;;12.53;;
11761;SDS011;5938;47.098;15.474;2024-02-28T03:33:04;41.10;;;11.40;;
11761;SDS011;5938;47.098;15.474;2024-02-28T03:37:08;43.83;;;12.47;;
11761;SDS011;5938;47.098;15.474;2024-02-28T03:41:12;40.87;;;11.90;;
11761;SDS011;5938;47.098;15.474;2024-02-28T03:45:16;41.50;;;12.70;;
11761;SDS011;5938;47.098;15.474;2024-02-28T03:49:21;41.13;;;11.80;;
11761;SDS011;5938;47.098;15.474;2024-02-28T03:53:24;43.60;;;13.00;;
11761;SDS011;5938;47.098;15.474;2024-02-28T03:57:28;45.57;;;14.63;;
11761;SDS011;5938;47.098;15.474;2024-02-28T04:01:33;45.20;;;11.77;;
11761;SDS011;5938;47.098;15.474;2024-02-28T04:05:37;42.67;;;11.73;;
11761;SDS011;5938;47.098;15.474;2024-02-28T04:09:40;43.03;;;12.70;;
11761;SDS011;5938;47.098;15.474;2024-02-28T04:13:44;43.00;;;11.67;;
11761;SDS011;5938;47.098;15.474;2024-02-28T04:17:49;41.03;;;11.90;;
11761;SDS011;5938;47.098;15.474;2024-02-28T04:21:52;43.53;;;10.97;;
11761;SDS011;5938;47.098;15.474;2024-02-28T04:25:56;42.00;;;12.10;;
11761;SDS011;5938;47.098;15.474;2024-02-28T04:30:01;41.50;;;11.27;;
11761;SDS011;5938;47.098;15.474;2024-02-28T04:34:07;40.70;;;10.20;;
11761;SDS011;5938;47.098;15.474;2024-02-28T04:38:11;43.03;;;10.73;;
11761;SDS011;5938;47.098;15.474;2024-02-28T04:42:15;39.93;;;10.33;;
11761;SDS011;5938;47.098;15.474;2024-02-28T04:46:21;39.53;;;9.70;;
11761;SDS011;5938;47.098;15.474;2024-02-28T04:50:26;39.57;;;10.27;;
11761;SDS011;5938;47.098;15.474;2024-02-28T04:54:30;44.40;;;10.30;;
11761;SDS011;5938;47.098;15.474;2024-02-28T04:58:33;41.20;;;11.43;;
11761;SDS011;5938;47.098;15.474;2024-02-28T05:02:37;38.80;;;9.20;;
11761;SDS011;5938;47.098;15.474;2024-02-28T05:06:42;43.40;;;11.00;;
11761;SDS011;5938;47.098;15.474;2024-02-28T05:10:46;37.50;;;8.67;;
11761;SDS011;5938;47.098;15.474;2024-02-28T05:14:49;44.33;;;9.03;;
11761;SDS011;5938;47.098;15.474;2024-02-28T05:18:55;40.33;;;9.27;;
11761;SDS011;5938;47.098;15.474;2024-02-28T05:23:02;39.77;;;9.27;;
11761;SDS011;5938;47.098;15.474;2024-02-28T05:27:06;38.63;;;9.57;;
11761;SDS011;5938;47.098;15.474;2024-02-28T05:31:19;37.80;;;8.80;;
11761;SDS011;5938;47.098;15.474;2024-02-28T05:35:24;39.23;;;10.10;;
11761;SDS011;5938;47.098;15.474;2024-02-28T05:39:29;38.87;;;9.87;;
11761;SDS011;5938;47.098;15.474;2024-02-28T05:43:32;41.20;;;11.47;;
11761;SDS011;5938;47.098;15.474;2024-02-28T05:47:35;37.77;;;10.00;;
11761;SDS011;5938;47.098;15.474;2024-02-28T05:51:39;40.00;;;11.20;;
11761;SDS011;5938;47.098;15.474;2024-02-28T05:55:44;39.43;;;11.30;;
11761;SDS011;5938;47.098;15.474;2024-02-28T05:59:47;57.00;;;14.77;;
11761;SDS011;5938;47.098;15.474;2024-02-28T06:03:51;48.10;;;14.87;;
11761;SDS011;5938;47.098;15.474;2024-02-28T06:07:54;45.20;;;12.33;;
11761;SDS011;5938;47.098;15.474;2024-02-28T06:11:59;45.40;;;12.03;;
11761;SDS011;5938;47.098;15.474;2024-02-28T06:16:05;55.30;;;15.27;;
11761;SDS011;5938;47.098;15.474;2024-02-28T06:20:09;54.67;;;18.30;;
11761;SDS011;5938;47.098;15.474;2024-02-28T06:24:13;59.87;;;20.20;;
11761;SDS011;5938;47.098;15.474;2024-02-28T06:28:18;58.30;;;16.90;;
11761;SDS011;5938;47.098;15.474;2024-02-28T06:32:23;52.77;;;17.10;;
11761;SDS011;5938;47.098;15.474;2024-02-28T06:36:29;57.00;;;18.00;;
11761;SDS011;5938;47.098;15.474;2024-02-28T06:40:32;51.23;;;16.00;;
11761;SDS011;5938;47.098;15.474;2024-02-28T06:44:37;63.47;;;17.80;;
11761;SDS011;5938;47.098;15.474;2024-02-28T06:48:40;48.13;;;16.47;;
11761;SDS011;5938;47.098;15.474;2024-02-28T06:52:44;55.80;;;17.33;;
11761;SDS011;5938;47.098;15.474;2024-02-28T06:56:47;53.17;;;16.30;;
11761;SDS011;5938;47.098;15.474;2024-02-28T07:00:52;52.00;;;18.57;;
11761;SDS011;5938;47.098;15.474;2024-02-28T07:04:59;48.40;;;17.93;;
11761;SDS011;5938;47.098;15.474;2024-02-28T07:09:03;53.80;;;20.20;;
11761;SDS011;5938;47.098;15.474;2024-02-28T07:13:07;49.47;;;17.57;;
11761;SDS011;5938;47.098;15.474;2024-02-28T07:17:13;42.63;;;14.43;;
11761;SDS011;5938;47.098;15.474;2024-02-28T07:21:17;44.27;;;15.10;;
11761;SDS011;5938;47.098;15.474;2024-02-28T07:25:21;46.27;;;15.23;;
11761;SDS011;5938;47.098;15.474;2024-02-28T07:29:24;41.33;;;15.03;;
11761;SDS011;5938;47.098;15.474;2024-02-28T07:33:30;43.93;;;14.53;;
11761;SDS011;5938;47.098;15.474;2024-02-28T07:37:34;38.17;;;12.50;;
11761;SDS011;5938;47.098;15.474;2024-02-28T07:41:37;40.60;;;13.60;;
11761;SDS011;5938;47.098;15.474;2024-02-28T07:45:43;37.63;;;11.33;;
11761;SDS011;5938;47.098;15.474;2024-02-28T07:49:48;34.50;;;10.23;;
11761;SDS011;5938;47.098;15.474;2024-02-28T07:53:54;38.40;;;11.77;;
11761;SDS011;5938;47.098;15.474;2024-02-28T07:57:59;38.20;;;13.30;;
11761;SDS011;5938;47.098;15.474;2024-02-28T08:02:03;39.43;;;13.20;;
11761;SDS011;5938;47.098;15.474;2024-02-28T08:06:08;38.07;;;12.07;;
11761;SDS011;5938;47.098;15.474;2024-02-28T08:10:12;37.20;;;11.80;;
11761;SDS011;5938;47.098;15.474;2024-02-28T08:14:16;35.87;;;14.40;;
11761;SDS011;5938;47.098;15.474;2024-02-28T08:18:20;40.40;;;16.77;;
11761;SDS011;5938;47.098;15.474;2024-02-28T08:22:24;39.10;;;15.23;;
11761;SDS011;5938;47.098;15.474;2024-02-28T08:26:29;39.00;;;15.47;;
11761;SDS011;5938;47.098;15.474;2024-02-28T08:30:32;38.90;;;16.53;;
11761;SDS011;5938;47.098;15.474;2024-02-28T08:34:36;37.13;;;16.90;;
11761;SDS011;5938;47.098;15.474;2024-02-28T08:38:41;36.10;;;17.17;;
11761;SDS011;5938;47.098;15.474;2024-02-28T08:42:45;33.80;;;14.33;;
11761;SDS011;5938;47.098;15.474;2024-02-28T08:46:50;36.57;;;15.43;;
11761;SDS011;5938;47.098;15.474;2024-02-28T08:50:53;36.50;;;13.83;;
11761;SDS011;5938;47.098;15.474;2024-02-28T08:54:59;33.60;;;13.27;;
11761;SDS011;5938;47.098;15.474;2024-02-28T08:59:03;33.70;;;10.63;;
11761;SDS011;5938;47.098;15.474;2024-02-28T09:03:07;34.13;;;10.73;;
11761;SDS011;5938;47.098;15.474;2024-02-28T09:07:11;33.23;;;12.67;;
11761;SDS011;5938;47.098;15.474;2024-02-28T09:11:16;33.73;;;10.50;;
11761;SDS011;5938;47.098;15.474;2024-02-28T09:15:20;33.00;;;8.07;;
11761;SDS011;5938;47.098;15.474;2024-02-28T09:19:24;32.33;;;8.73;;
11761;SDS011;5938;47.098;15.474;2024-02-28T09:23:28;30.50;;;8.20;;
11761;SDS011;5938;47.098;15.474;2024-02-28T09:27:34;30.63;;;9.47;;
11761;SDS011;5938;47.098;15.474;2024-02-28T09:31:38;34.47;;;12.67;;
11761;SDS011;5938;47.098;15.474;2024-02-28T09:35:41;30.73;;;12.10;;
11761;SDS011;5938;47.098;15.474;2024-02-28T09:39:45;30.00;;;12.60;;
11761;SDS011;5938;47.098;15.474;2024-02-28T09:43:49;31.60;;;13.60;;
11761;SDS011;5938;47.098;15.474;2024-02-28T09:47:53;30.97;;;12.77;;
11761;SDS011;5938;47.098;15.474;2024-02-28T09:51:57;33.17;;;14.17;;
11761;SDS011;5938;47.098;15.474;2024-02-28T09:56:04;34.37;;;12.90;;
11761;SDS011;5938;47.098;15.474;2024-02-28T10:00:11;30.83;;;12.40;;
11761;SDS011;5938;47.098;15.474;2024-02-28T10:04:16;30.73;;;12.90;;
11761;SDS011;5938;47.098;15.474;2024-02-28T10:08:20;30.77;;;13.30;;
11761;SDS011;5938;47.098;15.474;2024-02-28T10:12:24;28.67;;;12.10;;
11761;SDS011;5938;47.098;15.474;2024-02-28T10:16:30;29.20;;;13.13;;
11761;SDS011;5938;47.098;15.474;2024-02-28T10:20:33;30.23;;;15.33;;
11761;SDS011;5938;47.098;15.474;2024-02-28T10:24:37;28.47;;;16.60;;
11761;SDS011;5938;47.098;15.474;2024-02-28T10:28:41;28.73;;;12.93;;
11761;SDS011;5938;47.098;15.474;2024-02-28T10:32:49;27.47;;;13.90;;
11761;SDS011;5938;47.098;15.474;2024-02-28T10:36:54;31.57;;;14.07;;
11761;SDS011;5938;47.098;15.474;2024-02-28T10:40:59;29.83;;;18.57;;
11761;SDS011;5938;47.098;15.474;2024-02-28T10:45:04;28.90;;;18.83;;
11761;SDS011;5938;47.098;15.474;2024-02-28T10:49:29;32.43;;;19.37;;
11761;SDS011;5938;47.098;15.474;2024-02-28T10:53:36;29.10;;;20.40;;
11761;SDS011;5938;47.098;15.474;2024-02-28T10:57:40;31.37;;;21.07;;
11761;SDS011;5938;47.098;15.474;2024-02-28T11:01:44;30.93;;;21.90;;
11761;SDS011;5938;47.098;15.474;2024-02-28T11:05:50;30.07;;;23.37;;
11761;SDS011;5938;47.098;15.474;2024-02-28T11:09:54;31.17;;;24.23;;
11761;SDS011;5938;47.098;15.474;2024-02-28T11:13:59;28.60;;;22.80;;
11761;SDS011;5938;47.098;15.474;2024-02-28T11:18:09;27.27;;;18.33;;
11761;SDS011;5938;47.098;15.474;2024-02-28T11:22:17;25.70;;;16.93;;
11761;SDS011;5938;47.098;15.474;2024-02-28T11:26:22;29.00;;;18.03;;
11761;SDS011;5938;47.098;15.474;2024-02-28T11:30:28;32.73;;;21.73;;
11761;SDS011;5938;47.098;15.474;2024-02-28T11:34:33;29.77;;;21.97;;
11761;SDS011;5938;47.098;15.474;2024-02-28T11:38:38;30.47;;;18.93;;
11761;SDS011;5938;47.098;15.474;2024-02-28T11:42:43;35.37;;;20.67;;
11761;SDS011;5938;47.098;15.474;2024-02-28T11:46:46;35.20;;;23.93;;
11761;SDS011;5938;47.098;15.474;2024-02-28T11:50:50;31.53;;;20.90;;
11761;SDS011;5938;47.098;15.474;2024-02-28T11:54:56;31.73;;;16.37;;
11761;SDS011;5938;47.098;15.474;2024-02-28T11:59:00;33.30;;;19.20;;
11761;SDS011;5938;47.098;15.474;2024-02-28T12:03:05;32.97;;;20.00;;
11761;SDS011;5938;47.098;15.474;2024-02-28T12:07:09;33.90;;;21.47;;
11761;SDS011;5938;47.098;15.474;2024-02-28T12:11:14;33.70;;;22.00;;
11761;SDS011;5938;47.098;15.474;2024-02-28T12:15:18;35.30;;;23.27;;
11761;SDS011;5938;47.098;15.474;2024-02-28T12:19:23;35.23;;;24.40;;
11761;SDS011;5938;47.098;15.474;2024-02-28T12:23:27;31.30;;;24.20;;
11761;SDS011;5938;47.098;15.474;2024-02-28T12:27:34;32.97;;;24.67;;
11761;SDS011;5938;47.098;15.474;2024-02-28T12:31:38;31.83;;;26.17;;
11761;SDS011;5938;47.098;15.474;2024-02-28T12:35:42;31.87;;;23.40;;
11761;SDS011;5938;47.098;15.474;2024-02-28T12:39:47;31.87;;;20.03;;
11761;SDS011;5938;47.098;15.474;2024-02-28T12:43:55;33.10;;;18.70;;
11761;SDS011;5938;47.098;15.474;2024-02-28T12:47:58;29.03;;;13.00;;
11761;SDS011;5938;47.098;15.474;2024-02-28T12:52:03;24.93;;;10.20;;
11761;SDS011;5938;47.098;15.474;2024-02-28T12:56:08;26.27;;;10.77;;
11761;SDS011;5938;47.098;15.474;2024-02-28T13:00:15;27.57;;;9.43;;
11761;SDS011;5938;47.098;15.474;2024-02-28T13:04:20;25.20;;;10.30;;
11761;SDS011;5938;47.098;15.474;2024-02-28T13:08:24;27.83;;;9.47;;
11761;SDS011;5938;47.098;15.474;2024-02-28T13:12:28;24.23;;;8.83;;
11761;SDS011;5938;47.098;15.474;2024-02-28T13:16:33;24.10;;;8.50;;
11761;SDS011;5938;47.098;15.474;2024-02-28T13:20:40;25.73;;;9.00;;
11761;SDS011;5938;47.098;15.474;2024-02-28T13:24:44;24.90;;;10.23;;
11761;SDS011;5938;47.098;15.474;2024-02-28T13:28:48;22.00;;;10.93;;
11761;SDS011;5938;47.098;15.474;2024-02-28T13:32:57;20.40;;;11.20;;
11761;SDS011;5938;47.098;15.474;2024-02-28T13:37:01;23.37;;;11.10;;
11761;SDS011;5938;47.098;15.474;2024-02-28T13:41:08;27.37;;;11.00;;
11761;SDS011;5938;47.098;15.474;2024-02-28T13:45:14;22.27;;;7.90;;
11761;SDS011;5938;47.098;15.474;2024-02-28T13:49:21;27.93;;;8.73;;
11761;SDS011;5938;47.098;15.474;2024-02-28T13:53:33;22.73;;;7.50;;
11761;SDS011;5938;47.098;15.474;2024-02-28T13:57:38;23.57;;;8.17;;
11761;SDS011;5938;47.098;15.474;2024-02-28T14:01:45;22.77;;;7.30;;
11761;SDS011;5938;47.098;15.474;2024-02-28T14:05:50;23.93;;;7.23;;
11761;SDS011;5938;47.098;15.474;2024-02-28T14:09:54;23.67;;;7.20;;
11761;SDS011;5938;47.098;15.474;2024-02-28T14:13:58;25.13;;;6.43;;
11761;SDS011;5938;47.098;15.474;2024-02-28T14:18:04;23.37;;;7.50;;
11761;SDS011;5938;47.098;15.474;2024-02-28T14:22:11;24.40;;;7.60;;
11761;SDS011;5938;47.098;15.474;2024-02-28T14:26:16;28.90;;;7.43;;
11761;SDS011;5938;47.098;15.474;2024-02-28T14:30:19;22.70;;;7.07;;
11761;SDS011;5938;47.098;15.474;2024-02-28T14:34:23;27.00;;;8.67;;
11761;SDS011;5938;47.098;15.474;2024-02-28T14:38:28;26.73;;;7.17;;
11761;SDS011;5938;47.098;15.474;2024-02-28T14:42:32;29.63;;;7.80;;
11761;SDS011;5938;47.098;15.474;2024-02-28T14:46:36;24.83;;;7.20;;
11761;SDS011;5938;47.098;15.474;2024-02-28T14:50:39;22.37;;;6.43;;
11761;SDS011;5938;47.098;15.474;2024-02-28T14:54:44;30.33;;;7.63;;
11761;SDS011;5938;47.098;15.474;2024-02-28T14:58:48;31.13;;;7.67;;
11761;SDS011;5938;47.098;15.474;2024-02-28T15:02:52;27.33;;;7.90;;
11761;SDS011;5938;47.098;15.474;2024-02-28T15:06:55;28.47;;;7.67;;
11761;SDS011;5938;47.098;15.474;2024-02-28T15:11:01;35.27;;;7.47;;
11761;SDS011;5938;47.098;15.474;2024-02-28T15:15:06;26.63;;;6.10;;
11761;SDS011;5938;47.098;15.474;2024-02-28T15:19:10;26.47;;;7.40;;
11761;SDS011;5938;47.098;15.474;2024-02-28T15:23:14;26.07;;;6.53;;
11761;SDS011;5938;47.098;15.474;2024-02-28T15:27:20;23.67;;;6.40;;
11761;SDS011;5938;47.098;15.474;2024-02-28T15:31:23;27.10;;;7.43;;
11761;SDS011;5938;47.098;15.474;2024-02-28T15:35:29;32.90;;;8.43;;
11761;SDS011;5938;47.098;15.474;2024-02-28T15:39:32;27.20;;;8.90;;
11761;SDS011;5938;47.098;15.474;2024-02-28T15:43:37;30.00;;;10.67;;
11761;SDS011;5938;47.098;15.474;2024-02-28T15:47:41;32.63;;;13.83;;
11761;SDS011;5938;47.098;15.474;2024-02-28T15:51:44;33.30;;;14.43;;
11761;SDS011;5938;47.098;15.474;2024-02-28T15:55:48;42.67;;;20.93;;
11761;SDS011;5938;47.098;15.474;2024-02-28T15:59:53;45.33;;;23.57;;
11761;SDS011;5938;47.098;15.474;2024-02-28T16:03:56;44.23;;;23.30;;
11761;SDS011;5938;47.098;15.474;2024-02-28T16:08:03;37.07;;;21.13;;
11761;SDS011;5938;47.098;15.474;2024-02-28T16:22:20;36.27;;;19.90;;
11761;SDS011;5938;47.098;15.474;2024-02-28T16:26:24;36.27;;;18.10;;
11761;SDS011;5938;47.098;15.474;2024-02-28T16:30:27;39.10;;;18.30;;
11761;SDS011;5938;47.098;15.474;2024-02-28T16:34:34;32.77;;;16.73;;
11761;SDS011;5938;47.098;15.474;2024-02-28T16:38:42;37.20;;;14.00;;
11761;SDS011;5938;47.098;15.474;2024-02-28T16:42:50;37.50;;;13.33;;
11761;SDS011;5938;47.098;15.474;2024-02-28T16:46:54;40.00;;;11.87;;
11761;SDS011;5938;47.098;15.474;2024-02-28T16:50:59;34.70;;;10.47;;
11761;SDS011;5938;47.098;15.474;2024-02-28T16:55:03;41.10;;;9.70;;
11761;SDS011;5938;47.098;15.474;2024-02-28T16:59:08;32.60;;;7.83;;
11761;SDS011;5938;47.098;15.474;2024-02-28T17:03:14;33.63;;;8.97;;
11761;SDS011;5938;47.098;15.474;2024-02-28T17:07:19;35.07;;;9.40;;
11761;SDS011;5938;47.098;15.474;2024-02-28T17:11:23;33.23;;;8.50;;
11761;SDS011;5938;47.098;15.474;2024-02-28T17:15:26;34.30;;;9.47;;
11761;SDS011;5938;47.098;15.474;2024-02-28T17:19:30;36.37;;;9.17;;
11761;SDS011;5938;47.098;15.474;2024-02-28T17:23:37;33.33;;;9.10;;
11761;SDS011;5938;47.098;15.474;2024-02-28T17:27:43;34.20;;;9.67;;
11761;SDS011;5938;47.098;15.474;2024-02-28T17:31:46;39.60;;;10.20;;
11761;SDS011;5938;47.098;15.474;2024-02-28T17:35:50;34.87;;;10.27;;
11761;SDS011;5938;47.098;15.474;2024-02-28T17:40:05;34.70;;;9.57;;
11761;SDS011;5938;47.098;15.474;2024-02-28T17:50:06;37.60;;;11.60;;
11761;SDS011;5938;47.098;15.474;2024-02-28T17:59:51;43.90;;;12.20;;
11761;SDS011;5938;47.098;15.474;2024-02-28T18:03:57;45.93;;;14.93;;
11761;SDS011;5938;47.098;15.474;2024-02-28T18:08:01;41.57;;;13.10;;
11761;SDS011;5938;47.098;15.474;2024-02-28T18:12:05;45.57;;;12.80;;
11761;SDS011;5938;47.098;15.474;2024-02-28T18:16:12;42.53;;;13.50;;
11761;SDS011;5938;47.098;15.474;2024-02-28T18:20:16;49.83;;;19.80;;
11761;SDS011;5938;47.098;15.474;2024-02-28T18:24:22;39.60;;;14.10;;
11761;SDS011;5938;47.098;15.474;2024-02-28T18:28:28;38.67;;;12.67;;
11761;SDS011;5938;47.098;15.474;2024-02-28T18:32:40;45.03;;;12.93;;
11761;SDS011;5938;47.098;15.474;2024-02-28T18:36:43;41.43;;;11.27;;
11761;SDS011;5938;47.098;15.474;2024-02-28T18:40:48;38.70;;;11.93;;
11761;SDS011;5938;47.098;15.474;2024-02-28T18:44:52;40.70;;;13.50;;
11761;SDS011;5938;47.098;15.474;2024-02-28T18:48:58;45.03;;;15.30;;
11761;SDS011;5938;47.098;15.474;2024-02-28T18:53:02;45.83;;;15.60;;
11761;SDS011;5938;47.098;15.474;2024-02-28T18:57:06;42.70;;;15.50;;
11761;SDS011;5938;47.098;15.474;2024-02-28T19:01:10;44.20;;;15.63;;
11761;SDS011;5938;47.098;15.474;2024-02-28T19:05:19;41.00;;;13.97;;
11761;SDS011;5938;47.098;15.474;2024-02-28T19:09:24;45.33;;;17.27;;
11761;SDS011;5938;47.098;15.474;2024-02-28T19:13:28;47.37;;;16.90;;
11761;SDS011;5938;47.098;15.474;2024-02-28T19:17:31;49.03;;;16.57;;
11761;SDS011;5938;47.098;15.474;2024-02-28T19:21:38;45.07;;;16.20;;
11761;SDS011;5938;47.098;15.474;2024-02-28T19:25:42;54.40;;;17.10;;
11761;SDS011;5938;47.098;15.474;2024-02-28T19:29:47;48.20;;;17.80;;
11761;SDS011;5938;47.098;15.474;2024-02-28T19:33:52;46.17;;;17.57;;
11761;SDS011;5938;47.098;15.474;2024-02-28T19:37:57;52.87;;;20.37;;
11761;SDS011;5938;47.098;15.474;2024-02-28T19:42:01;48.93;;;18.40;;
11761;SDS011;5938;47.098;15.474;2024-02-28T19:46:04;51.00;;;19.97;;
11761;SDS011;5938;47.098;15.474;2024-02-28T19:50:10;47.07;;;18.37;;
11761;SDS011;5938;47.098;15.474;2024-02-28T19:54:16;47.30;;;18.80;;
11761;SDS011;5938;47.098;15.474;2024-02-28T19:58:19;50.73;;;18.50;;
11761;SDS011;5938;47.098;15.474;2024-02-28T20:02:23;49.90;;;18.73;;
11761;SDS011;5938;47.098;15.474;2024-02-28T20:06:28;47.90;;;18.17;;
11761;SDS011;5938;47.098;15.474;2024-02-28T20:10:33;49.73;;;20.23;;
11761;SDS011;5938;47.098;15.474;2024-02-28T20:14:37;45.07;;;17.70;;
11761;SDS011;5938;47.098;15.474;2024-02-28T20:18:42;50.50;;;18.70;;
11761;SDS011;5938;47.098;15.474;2024-02-28T20:22:46;45.20;;;17.40;;
11761;SDS011;5938;47.098;15.474;2024-02-28T20:26:52;47.33;;;18.63;;
11761;SDS011;5938;47.098;15.474;2024-02-28T20:30:56;48.87;;;18.03;;
11761;SDS011;5938;47.098;15.474;2024-02-28T20:35:03;49.87;;;18.00;;
11761;SDS011;5938;47.098;15.474;2024-02-28T20:39:08;46.53;;;18.30;;
11761;SDS011;5938;47.098;15.474;2024-02-28T20:43:13;51.63;;;19.40;;
11761;SDS011;5938;47.098;15.474;2024-02-28T20:47:16;49.57;;;20.67;;
11761;SDS011;5938;47.098;15.474;2024-02-28T20:51:40;55.17;;;21.63;;
11761;SDS011;5938;47.098;15.474;2024-02-28T20:55:44;54.50;;;19.27;;
11761;SDS011;5938;47.098;15.474;2024-02-28T20:59:50;61.93;;;20.27;;
11761;SDS011;5938;47.098;15.474;2024-02-28T21:03:53;52.03;;;18.90;;
11761;SDS011;5938;47.098;15.474;2024-02-28T21:08:00;46.20;;;19.43;;
11761;SDS011;5938;47.098;15.474;2024-02-28T21:12:04;49.30;;;17.50;;
11761;SDS011;5938;47.098;15.474;2024-02-28T21:16:10;46.33;;;17.40;;
11761;SDS011;5938;47.098;15.474;2024-02-28T21:20:15;47.10;;;18.90;;
11761;SDS011;5938;47.098;15.474;2024-02-28T21:24:19;51.93;;;18.83;;
11761;SDS011;5938;47.098;15.474;2024-02-28T21:28:23;49.20;;;18.37;;
11761;SDS011;5938;47.098;15.474;2024-02-28T21:32:27;51.07;;;18.37;;
11761;SDS011;5938;47.098;15.474;2024-02-28T21:36:31;46.57;;;17.90;;
11761;SDS011;5938;47.098;15.474;2024-02-28T21:40:35;47.73;;;17.47;;
11761;SDS011;5938;47.098;15.474;2024-02-28T21:44:40;46.83;;;18.20;;
11761;SDS011;5938;47.098;15.474;2024-02-28T21:48:45;53.17;;;19.80;;
11761;SDS011;5938;47.098;15.474;2024-02-28T21:52:59;54.03;;;19.53;;
11761;SDS011;5938;47.098;15.474;2024-02-28T21:57:04;48.07;;;18.67;;
11761;SDS011;5938;47.098;15.474;2024-02-28T22:01:08;44.90;;;18.20;;
11761;SDS011;5938;47.098;15.474;2024-02-28T22:05:13;43.77;;;16.47;;
11761;SDS011;5938;47.098;15.474;2024-02-28T22:09:16;52.33;;;19.97;;
11761;SDS011;5938;47.098;15.474;2024-02-28T22:13:20;47.33;;;18.47;;
11761;SDS011;5938;47.098;15.474;2024-02-28T22:17:25;52.97;;;19.73;;
11761;SDS011;5938;47.098;15.474;2024-02-28T22:21:30;49.63;;;19.03;;
11761;SDS011;5938;47.098;15.474;2024-02-28T22:25:35;50.03;;;19.07;;
11761;SDS011;5938;47.098;15.474;2024-02-28T22:29:39;53.03;;;20.53;;
11761;SDS011;5938;47.098;15.474;2024-02-28T22:33:43;48.57;;;18.37;;
11761;SDS011;5938;47.098;15.474;2024-02-28T22:37:48;51.40;;;19.23;;
11761;SDS011;5938;47.098;15.474;2024-02-28T22:41:51;49.43;;;17.43;;
11761;SDS011;5938;47.098;15.474;2024-02-28T22:45:55;47.27;;;17.67;;
11761;SDS011;5938;47.098;15.474;2024-02-28T22:49:58;52.37;;;19.60;;
11761;SDS011;5938;47.098;15.474;2024-02-28T22:54:04;51.13;;;18.70;;
11761;SDS011;5938;47.098;15.474;2024-02-28T22:58:09;45.80;;;17.03;;
11761;SDS011;5938;47.098;15.474;2024-02-28T23:02:12;47.90;;;19.17;;
11761;SDS011;5938;47.098;15.474;2024-02-28T23:06:16;51.50;;;20.00;;
11761;SDS011;5938;47.098;15.474;2024-02-28T23:10:23;51.17;;;19.90;;
11761;SDS011;5938;47.098;15.474;2024-02-28T23:14:26;47.70;;;18.47;;
11761;SDS011;5938;47.098;15.474;2024-02-28T23:18:30;53.47;;;19.27;;
11761;SDS011;5938;47.098;15.474;2024-02-28T23:22:35;48.60;;;18.67;;
11761;SDS011;5938;47.098;15.474;2024-02-28T23:26:40;50.40;;;18.20;;
11761;SDS011;5938;47.098;15.474;2024-02-28T23:30:43;49.27;;;17.43;;
11761;SDS011;5938;47.098;15.474;2024-02-28T23:34:47;45.27;;;16.57;;
11761;SDS011;5938;47.098;15.474;2024-02-28T23:38:51;47.23;;;17.73;;
11761;SDS011;5938;47.098;15.474;2024-02-28T23:42:56;47.60;;;17.60;;
11761;SDS011;5938;47.098;15.474;2024-02-28T23:46:59;45.30;;;15.80;;
11761;SDS011;5938;47.098;15.474;2024-02-28T23:51:04;45.57;;;15.93;;
11761;SDS011;5938;47.098;15.474;2024-02-28T23:55:09;50.53;;;16.17;;
11761;SDS011;5938;47.098;15.474;2024-02-28T23:59:14;44.10;;;16.93;;
